createdAt,value
2018-02-23T00:01:23.806Z,6.50
2018-02-23T00:03:51.354Z,6.90
2018-02-23T00:06:18.924Z,7.53
2018-02-23T00:08:46.457Z,7.43
2018-02-23T00:11:14.021Z,7.47
2018-02-23T00:13:41.544Z,6.63
2018-02-23T00:16:09.109Z,7.73
2018-02-23T00:18:36.630Z,7.17
2018-02-23T00:21:04.169Z,7.00
2018-02-23T00:23:31.735Z,6.63
2018-02-23T00:25:59.253Z,6.93
2018-02-23T00:28:26.761Z,7.37
2018-02-23T00:30:54.354Z,7.90
2018-02-23T00:33:21.887Z,6.47
2018-02-23T00:35:49.441Z,7.43
2018-02-23T00:38:17.006Z,7.93
2018-02-23T00:40:44.565Z,7.13
2018-02-23T00:43:12.098Z,6.23
2018-02-23T00:45:39.662Z,6.90
2018-02-23T00:48:07.193Z,8.17
2018-02-23T00:50:34.753Z,6.63
2018-02-23T00:53:02.313Z,7.20
2018-02-23T00:55:30.605Z,7.33
2018-02-23T00:57:58.210Z,7.77
2018-02-23T01:00:25.748Z,8.33
2018-02-23T01:02:53.309Z,7.73
2018-02-23T01:05:20.874Z,8.53
2018-02-23T01:07:48.445Z,7.67
2018-02-23T01:10:15.969Z,9.27
2018-02-23T01:12:43.569Z,7.93
2018-02-23T01:15:11.091Z,7.37
2018-02-23T01:17:38.667Z,8.77
2018-02-23T01:20:06.231Z,7.90
2018-02-23T01:22:33.837Z,9.00
2018-02-23T01:25:01.417Z,8.37
2018-02-23T01:27:29.733Z,8.57
2018-02-23T01:29:57.294Z,8.87
2018-02-23T01:32:24.853Z,8.53
2018-02-23T01:34:52.411Z,8.47
2018-02-23T01:37:19.966Z,9.17
2018-02-23T01:39:47.496Z,9.10
2018-02-23T01:42:15.093Z,8.33
2018-02-23T01:44:42.662Z,9.47
2018-02-23T01:47:10.227Z,9.30
2018-02-23T01:49:37.770Z,9.07
2018-02-23T01:52:05.332Z,9.37
2018-02-23T01:54:32.840Z,9.57
2018-02-23T01:57:01.234Z,8.97
2018-02-23T01:59:28.750Z,9.10
2018-02-23T02:01:56.300Z,10.30
2018-02-23T02:04:23.844Z,9.63
2018-02-23T02:06:51.426Z,9.53
2018-02-23T02:09:18.993Z,10.53
2018-02-23T02:11:46.579Z,9.73
2018-02-23T02:14:14.251Z,9.87
2018-02-23T02:16:42.605Z,10.90
2018-02-23T02:19:10.169Z,9.77
2018-02-23T02:21:37.706Z,9.87
2018-02-23T02:24:05.267Z,10.47
2018-02-23T02:26:32.828Z,11.23
2018-02-23T02:29:00.470Z,10.43
2018-02-23T02:31:28.032Z,10.00
2018-02-23T02:33:56.375Z,10.27
2018-02-23T02:36:24.684Z,11.33
2018-02-23T02:38:52.305Z,10.20
2018-02-23T02:41:19.887Z,10.53
2018-02-23T02:43:47.434Z,10.77
2018-02-23T02:46:15.825Z,10.03
2018-02-23T02:48:43.378Z,11.93
2018-02-23T02:51:10.920Z,9.90
2018-02-23T02:53:38.517Z,10.17
2018-02-23T02:56:06.074Z,9.73
2018-02-23T02:58:33.613Z,10.63
2018-02-23T03:01:01.189Z,9.73
2018-02-23T03:03:28.721Z,10.50
2018-02-23T03:05:56.257Z,10.90
2018-02-23T03:08:23.832Z,11.03
2018-02-23T03:10:51.368Z,10.83
2018-02-23T03:13:18.926Z,10.97
2018-02-23T03:15:46.469Z,10.47
2018-02-23T03:18:14.041Z,10.83
2018-02-23T03:20:41.643Z,10.17
2018-02-23T03:23:09.274Z,10.93
2018-02-23T03:25:36.822Z,11.53
2018-02-23T03:28:04.388Z,10.97
2018-02-23T03:30:31.957Z,10.37
2018-02-23T03:32:59.493Z,10.40
2018-02-23T03:35:27.106Z,9.87
2018-02-23T03:37:54.698Z,10.57
2018-02-23T03:40:22.267Z,11.17
2018-02-23T03:42:49.836Z,10.63
2018-02-23T03:45:17.425Z,11.10
2018-02-23T03:47:44.982Z,10.40
2018-02-23T03:50:12.536Z,10.03
2018-02-23T03:52:40.102Z,10.87
2018-02-23T03:55:07.616Z,12.30
2018-02-23T03:57:35.181Z,10.50
2018-02-23T04:00:02.737Z,11.40
2018-02-23T04:02:30.389Z,11.13
2018-02-23T04:04:58.716Z,10.87
2018-02-23T04:07:26.281Z,10.47
2018-02-23T04:09:53.868Z,10.10
2018-02-23T04:12:21.496Z,11.20
2018-02-23T04:14:49.062Z,11.20
2018-02-23T04:17:16.613Z,10.93
2018-02-23T04:19:44.183Z,11.07
2018-02-23T04:22:11.740Z,11.03
2018-02-23T04:24:39.313Z,10.43
2018-02-23T04:27:06.910Z,11.17
2018-02-23T04:29:34.476Z,11.53
2018-02-23T04:32:02.068Z,11.40
2018-02-23T04:34:29.626Z,11.23
2018-02-23T04:36:57.190Z,10.87
2018-02-23T04:39:24.762Z,10.43
2018-02-23T04:41:52.329Z,12.30
2018-02-23T04:44:19.957Z,10.30
2018-02-23T04:46:47.494Z,11.17
2018-02-23T04:49:15.054Z,11.47
2018-02-23T04:51:42.624Z,11.40
2018-02-23T04:54:10.211Z,10.90
2018-02-23T04:56:37.778Z,11.93
2018-02-23T04:59:05.402Z,10.63
2018-02-23T05:01:32.941Z,11.37
2018-02-23T05:04:00.573Z,11.03
2018-02-23T05:06:28.131Z,11.07
2018-02-23T05:08:55.652Z,11.80
2018-02-23T05:11:23.250Z,11.93
2018-02-23T05:13:50.794Z,12.50
2018-02-23T05:16:18.365Z,12.30
2018-02-23T05:18:45.928Z,10.67
2018-02-23T05:21:13.485Z,12.93
2018-02-23T05:23:41.081Z,12.47
2018-02-23T05:26:08.765Z,11.83
2018-02-23T05:28:36.360Z,11.83
2018-02-23T05:31:03.935Z,12.20
2018-02-23T05:33:31.500Z,10.97
2018-02-23T05:35:59.025Z,11.73
2018-02-23T05:38:26.717Z,12.50
2018-02-23T05:40:54.232Z,11.80
2018-02-23T05:43:21.806Z,12.37
2018-02-23T05:45:49.383Z,12.70
2018-02-23T05:48:16.941Z,13.17
2018-02-23T05:50:44.518Z,11.70
2018-02-23T05:53:12.076Z,12.80
2018-02-23T05:55:39.633Z,12.23
2018-02-23T05:58:07.198Z,12.10
2018-02-23T06:00:34.797Z,13.00
2018-02-23T06:03:02.380Z,12.30
2018-02-23T06:05:29.928Z,12.87
2018-02-23T06:07:57.512Z,11.57
2018-02-23T06:10:25.058Z,11.80
2018-02-23T06:12:52.644Z,11.60
2018-02-23T06:15:20.322Z,12.77
2018-02-23T06:17:53.551Z,13.77
2018-02-23T06:20:27.462Z,13.30
2018-02-23T06:22:55.199Z,13.07
2018-02-23T06:25:22.735Z,13.50
2018-02-23T06:27:50.446Z,12.90
2018-02-23T06:30:18.066Z,12.90
2018-02-23T06:32:45.671Z,13.27
2018-02-23T06:35:13.263Z,13.57
2018-02-23T06:37:40.803Z,13.30
2018-02-23T06:40:09.135Z,14.13
2018-02-23T06:42:36.705Z,13.83
2018-02-23T06:45:04.240Z,12.17
2018-02-23T06:47:31.789Z,13.53
2018-02-23T06:49:59.366Z,14.03
2018-02-23T06:52:27.016Z,14.00
2018-02-23T06:54:54.626Z,13.43
2018-02-23T06:57:22.252Z,13.40
2018-02-23T06:59:49.789Z,14.03
2018-02-23T07:02:17.467Z,13.87
2018-02-23T07:04:45.070Z,13.90
2018-02-23T07:07:12.639Z,13.43
2018-02-23T07:09:40.204Z,14.20
2018-02-23T07:12:08.513Z,14.67
2018-02-23T07:14:36.119Z,16.57
2018-02-23T07:17:03.695Z,13.80
2018-02-23T07:19:31.329Z,13.70
2018-02-23T07:21:58.966Z,13.40
2018-02-23T07:24:26.542Z,14.30
2018-02-23T07:26:54.096Z,15.27
2018-02-23T07:29:21.702Z,13.87
2018-02-23T07:31:50.041Z,14.03
2018-02-23T07:34:17.616Z,14.07
2018-02-23T07:36:45.284Z,15.53
2018-02-23T07:39:12.939Z,15.03
2018-02-23T07:41:40.622Z,15.03
2018-02-23T07:44:08.272Z,14.60
2018-02-23T07:46:35.849Z,15.47
2018-02-23T07:49:03.385Z,16.00
2018-02-23T07:51:30.975Z,16.40
2018-02-23T07:53:58.658Z,14.33
2018-02-23T07:56:26.248Z,15.23
2018-02-23T07:58:53.822Z,15.30
2018-02-23T08:01:21.401Z,15.40
2018-02-23T08:03:48.997Z,16.73
2018-02-23T08:06:16.557Z,15.30
2018-02-23T08:08:44.171Z,15.10
2018-02-23T08:11:11.751Z,14.67
2018-02-23T08:13:39.346Z,15.40
2018-02-23T08:16:06.901Z,15.30
2018-02-23T08:18:34.462Z,15.30
2018-02-23T08:21:03.255Z,15.77
2018-02-23T08:23:31.085Z,15.20
2018-02-23T08:25:58.632Z,15.33
2018-02-23T08:28:26.213Z,18.92
2018-02-23T08:30:53.860Z,16.37
2018-02-23T08:33:21.425Z,16.37
2018-02-23T08:35:49.018Z,15.83
2018-02-23T08:38:16.742Z,16.37
2018-02-23T08:40:44.402Z,16.20
2018-02-23T08:43:11.960Z,16.70
2018-02-23T08:45:39.484Z,16.70
2018-02-23T08:48:07.156Z,15.83
2018-02-23T08:50:34.730Z,14.73
2018-02-23T08:53:04.037Z,16.20
2018-02-23T08:55:32.060Z,17.00
2018-02-23T08:57:59.650Z,17.00
2018-02-23T09:00:27.323Z,16.60
2018-02-23T09:02:54.887Z,16.87
2018-02-23T09:05:22.968Z,15.67
2018-02-23T09:07:50.681Z,17.00
2018-02-23T09:10:18.338Z,17.17
2018-02-23T09:12:45.902Z,16.67
2018-02-23T09:15:13.468Z,17.17
2018-02-23T09:17:41.167Z,17.33
2018-02-23T09:20:08.747Z,17.37
2018-02-23T09:22:36.580Z,17.93
2018-02-23T09:25:04.272Z,17.03
2018-02-23T09:27:32.008Z,17.17
2018-02-23T09:29:59.711Z,16.60
2018-02-23T09:32:38.068Z,17.40
2018-02-23T09:35:05.699Z,17.20
2018-02-23T09:37:34.053Z,17.07
2018-02-23T09:40:01.690Z,16.60
2018-02-23T09:42:29.229Z,17.60
2018-02-23T09:44:56.805Z,18.70
2018-02-23T09:47:24.406Z,17.93
2018-02-23T09:49:52.061Z,17.47
2018-02-23T09:52:19.715Z,18.00
2018-02-23T09:54:47.391Z,17.50
2018-02-23T09:57:15.012Z,18.03
2018-02-23T09:59:42.630Z,17.77
2018-02-23T10:02:10.284Z,19.37
2018-02-23T10:04:37.962Z,17.80
2018-02-23T10:07:06.303Z,18.80
2018-02-23T10:09:34.192Z,18.27
2018-02-23T10:12:01.761Z,18.50
2018-02-23T10:14:29.356Z,18.97
2018-02-23T10:16:57.001Z,18.30
2018-02-23T10:19:24.703Z,17.47
2018-02-23T10:21:52.528Z,19.43
2018-02-23T10:24:20.214Z,19.40
2018-02-23T10:26:48.017Z,18.13
2018-02-23T10:29:15.882Z,18.73
2018-02-23T10:31:43.881Z,17.90
2018-02-23T10:34:11.700Z,18.80
2018-02-23T10:36:40.416Z,20.10
2018-02-23T10:39:08.067Z,19.23
2018-02-23T10:41:35.684Z,19.27
2018-02-23T10:44:03.508Z,17.90
2018-02-23T10:46:31.109Z,17.43
2018-02-23T10:48:58.881Z,18.63
2018-02-23T10:51:26.481Z,19.17
2018-02-23T10:53:54.155Z,18.83
2018-02-23T10:56:21.918Z,18.33
2018-02-23T10:58:49.678Z,18.03
2018-02-23T11:01:17.219Z,18.87
2018-02-23T11:03:44.780Z,18.87
2018-02-23T11:06:12.444Z,18.87
2018-02-23T11:08:40.023Z,19.00
2018-02-23T11:11:07.629Z,19.03
2018-02-23T11:13:35.156Z,19.53
2018-02-23T11:16:02.781Z,19.27
2018-02-23T11:18:30.349Z,20.30
2018-02-23T11:20:57.978Z,19.60
2018-02-23T11:23:25.554Z,18.03
2018-02-23T11:25:53.203Z,19.90
2018-02-23T11:28:20.793Z,19.10
2018-02-23T11:30:48.358Z,19.37
2018-02-23T11:33:16.271Z,16.90
2018-02-23T11:35:44.591Z,21.27
2018-02-23T11:38:12.235Z,19.80
2018-02-23T11:40:39.885Z,19.63
2018-02-23T11:43:07.494Z,19.37
2018-02-23T11:45:35.053Z,20.33
2018-02-23T11:48:02.725Z,20.83
2018-02-23T11:50:30.291Z,18.93
2018-02-23T11:52:58.666Z,18.47
2018-02-23T11:55:26.265Z,19.20
2018-02-23T11:57:53.975Z,18.93
2018-02-23T12:00:21.596Z,18.97
2018-02-23T12:02:49.164Z,19.87
2018-02-23T12:05:17.003Z,17.67
2018-02-23T12:07:45.439Z,18.20
2018-02-23T12:10:13.026Z,17.93
2018-02-23T12:12:40.696Z,19.07
2018-02-23T12:15:08.322Z,17.07
2018-02-23T12:17:35.910Z,17.67
2018-02-23T12:20:03.706Z,17.90
2018-02-23T12:22:32.611Z,17.97
2018-02-23T12:25:00.200Z,17.97
2018-02-23T12:27:28.666Z,18.03
2018-02-23T12:29:56.242Z,17.27
2018-02-23T12:32:23.812Z,17.40
2018-02-23T12:34:51.564Z,18.90
2018-02-23T12:37:19.175Z,18.50
2018-02-23T12:39:46.839Z,18.30
2018-02-23T12:42:15.170Z,17.83
2018-02-23T12:44:43.502Z,17.90
2018-02-23T12:47:11.136Z,18.30
2018-02-23T12:49:39.077Z,18.50
2018-02-23T12:52:07.409Z,17.97
2018-02-23T12:54:35.746Z,17.23
2018-02-23T12:57:03.313Z,16.60
2018-02-23T12:59:30.909Z,18.10
2018-02-23T13:01:58.520Z,17.27
2018-02-23T13:04:26.895Z,17.77
2018-02-23T13:06:54.465Z,18.57
2018-02-23T13:09:22.438Z,18.93
2018-02-23T13:11:50.201Z,18.60
2018-02-23T13:14:17.770Z,18.83
2018-02-23T13:16:45.333Z,18.07
2018-02-23T13:19:13.689Z,18.43
2018-02-23T13:21:41.262Z,19.23
2018-02-23T13:24:08.865Z,19.40
2018-02-23T13:26:36.431Z,18.40
2018-02-23T13:29:04.105Z,19.37
2018-02-23T13:31:31.693Z,17.93
2018-02-23T13:33:59.480Z,18.03
2018-02-23T13:36:27.110Z,18.43
2018-02-23T13:38:54.772Z,18.97
2018-02-23T13:41:28.024Z,17.53
2018-02-23T13:43:55.767Z,18.50
2018-02-23T13:46:23.307Z,17.73
2018-02-23T13:48:50.922Z,17.50
2018-02-23T13:51:18.559Z,19.17
2018-02-23T13:53:46.232Z,18.13
2018-02-23T13:56:13.809Z,19.30
2018-02-23T13:58:41.396Z,19.13
2018-02-23T14:01:08.967Z,18.60
2018-02-23T14:03:36.602Z,17.40
2018-02-23T14:06:04.239Z,18.77
2018-02-23T14:08:31.869Z,17.00
2018-02-23T14:10:59.480Z,17.40
2018-02-23T14:13:27.052Z,17.67
2018-02-23T14:15:54.645Z,17.53
2018-02-23T14:18:22.266Z,18.23
2018-02-23T14:20:49.897Z,19.10
2018-02-23T14:23:17.484Z,18.33
2018-02-23T14:25:45.008Z,18.27
2018-02-23T14:28:12.587Z,18.23
2018-02-23T14:30:40.165Z,18.27
2018-02-23T14:33:07.820Z,18.53
2018-02-23T14:35:35.371Z,17.70
2018-02-23T14:38:02.951Z,17.93
2018-02-23T14:40:31.882Z,17.17
2018-02-23T14:42:59.448Z,17.97
2018-02-23T14:45:27.046Z,18.27
2018-02-23T14:47:54.658Z,18.57
2018-02-23T14:50:33.938Z,18.47
2018-02-23T14:53:01.585Z,17.77
2018-02-23T14:55:29.178Z,18.43
2018-02-23T14:57:56.830Z,18.17
2018-02-23T15:00:24.394Z,19.13
2018-02-23T15:02:52.137Z,18.83
2018-02-23T15:05:19.684Z,19.67
2018-02-23T15:07:47.299Z,19.60
2018-02-23T15:10:14.833Z,19.33
2018-02-23T15:12:42.397Z,17.50
2018-02-23T15:15:10.696Z,17.60
2018-02-23T15:17:38.319Z,18.37
2018-02-23T15:20:05.856Z,17.53
2018-02-23T15:22:33.457Z,18.77
2018-02-23T15:25:01.310Z,17.47
2018-02-23T15:27:29.018Z,19.43
2018-02-23T15:29:56.579Z,19.40
2018-02-23T15:32:30.453Z,19.60
2018-02-23T15:34:58.040Z,18.00
2018-02-23T15:37:25.694Z,18.10
2018-02-23T15:39:53.268Z,18.43
2018-02-23T15:42:20.815Z,18.50
2018-02-23T15:44:49.164Z,18.23
2018-02-23T15:47:17.725Z,19.50
2018-02-23T15:50:00.294Z,18.87
2018-02-23T15:52:27.938Z,19.10
2018-02-23T15:54:55.804Z,18.20
2018-02-23T15:57:23.954Z,18.10
2018-02-23T15:59:51.556Z,18.17
2018-02-23T16:02:19.128Z,19.03
2018-02-23T16:04:46.671Z,19.07
2018-02-23T16:07:15.001Z,19.87
2018-02-23T16:09:42.642Z,19.63
2018-02-23T16:12:10.226Z,17.77
2018-02-23T16:14:37.762Z,21.50
2018-02-23T16:17:05.356Z,20.17
2018-02-23T16:19:32.998Z,18.37
2018-02-23T16:22:00.648Z,21.33
2018-02-23T16:24:28.224Z,19.10
2018-02-23T16:26:55.749Z,19.87
2018-02-23T16:29:23.310Z,20.67
2018-02-23T16:31:50.926Z,19.40
2018-02-23T16:34:18.517Z,20.70
2018-02-23T16:36:46.180Z,18.13
2018-02-23T16:39:13.788Z,19.83
2018-02-23T16:41:41.348Z,20.97
2018-02-23T16:44:08.981Z,19.17
2018-02-23T16:46:36.585Z,19.67
2018-02-23T16:49:04.133Z,19.00
2018-02-23T16:51:31.707Z,21.27
2018-02-23T16:53:59.298Z,19.83
2018-02-23T16:56:26.862Z,20.53
2018-02-23T16:58:54.463Z,20.37
2018-02-23T17:01:22.000Z,20.33
2018-02-23T17:03:49.565Z,19.40
2018-02-23T17:06:17.165Z,21.13
2018-02-23T17:08:44.739Z,20.00
2018-02-23T17:11:12.347Z,20.63
2018-02-23T17:13:40.668Z,20.27
2018-02-23T17:16:08.214Z,20.13
2018-02-23T17:18:35.778Z,21.27
2018-02-23T17:21:03.349Z,20.77
2018-02-23T17:23:30.902Z,20.13
2018-02-23T17:25:58.511Z,19.00
2018-02-23T17:28:26.104Z,20.57
2018-02-23T17:30:53.707Z,20.30
2018-02-23T17:33:21.245Z,19.53
2018-02-23T17:35:48.887Z,21.50
2018-02-23T17:38:16.481Z,21.13
2018-02-23T17:40:44.944Z,19.83
2018-02-23T17:43:12.517Z,18.50
2018-02-23T17:45:40.088Z,19.77
2018-02-23T17:48:07.710Z,18.97
2018-02-23T17:50:35.385Z,19.37
2018-02-23T17:53:02.949Z,20.10
2018-02-23T17:55:30.638Z,20.60
2018-02-23T17:57:58.190Z,18.77
2018-02-23T18:00:25.768Z,18.87
2018-02-23T18:02:54.114Z,20.17
2018-02-23T18:05:21.656Z,20.90
2018-02-23T18:07:49.254Z,20.33
2018-02-23T18:10:16.812Z,20.10
2018-02-23T18:12:44.407Z,19.13
2018-02-23T18:15:11.970Z,20.50
2018-02-23T18:17:40.408Z,19.03
2018-02-23T18:20:07.957Z,19.50
2018-02-23T18:22:35.518Z,19.47
2018-02-23T18:25:03.083Z,19.50
2018-02-23T18:27:30.629Z,19.57
2018-02-23T18:29:58.201Z,20.37
2018-02-23T18:32:25.737Z,19.27
2018-02-23T18:34:54.089Z,19.37
2018-02-23T18:37:21.620Z,20.23
2018-02-23T18:39:49.213Z,20.70
2018-02-23T18:42:16.828Z,20.67
2018-02-23T18:44:44.367Z,21.60
2018-02-23T18:47:11.922Z,21.53
2018-02-23T18:49:39.493Z,22.40
2018-02-23T18:52:07.115Z,21.70
2018-02-23T18:54:34.670Z,21.53
2018-02-23T18:57:02.221Z,21.00
2018-02-23T18:59:30.541Z,20.23
2018-02-23T19:01:58.096Z,21.83
2018-02-23T19:04:25.668Z,22.77
2018-02-23T19:06:53.289Z,21.40
2018-02-23T19:09:21.613Z,22.23
2018-02-23T19:11:49.199Z,21.47
2018-02-23T19:14:16.768Z,20.97
2018-02-23T19:16:44.340Z,22.40
2018-02-23T19:19:12.640Z,20.97
2018-02-23T19:21:40.218Z,21.67
2018-02-23T19:24:07.773Z,21.73
2018-02-23T19:26:35.361Z,21.60
2018-02-23T19:29:02.899Z,20.97
2018-02-23T19:31:30.485Z,23.43
2018-02-23T19:33:58.030Z,22.30
2018-02-23T19:36:25.588Z,23.30
2018-02-23T19:38:53.152Z,23.03
2018-02-23T19:41:20.748Z,22.60
2018-02-23T19:43:49.089Z,23.07
2018-02-23T19:46:16.640Z,22.23
2018-02-23T19:48:44.197Z,24.60
2018-02-23T19:51:11.759Z,21.90
2018-02-23T19:53:39.462Z,22.73
2018-02-23T19:56:07.047Z,22.43
2018-02-23T19:58:35.427Z,23.47
2018-02-23T20:01:03.753Z,22.20
2018-02-23T20:03:31.384Z,24.33
2018-02-23T20:05:58.962Z,24.43
2018-02-23T20:08:26.581Z,23.47
2018-02-23T20:10:54.162Z,24.50
2018-02-23T20:13:21.867Z,22.13
2018-02-23T20:15:49.407Z,22.77
2018-02-23T20:18:17.074Z,24.03
2018-02-23T20:20:44.930Z,22.47
2018-02-23T20:23:12.496Z,23.50
2018-02-23T20:25:40.070Z,22.30
2018-02-23T20:28:07.622Z,22.93
2018-02-23T20:30:35.203Z,24.47
2018-02-23T20:33:02.756Z,24.07
2018-02-23T20:35:30.298Z,24.37
2018-02-23T20:37:57.860Z,24.40
2018-02-23T20:40:25.417Z,24.07
2018-02-23T20:42:52.988Z,23.07
2018-02-23T20:45:20.537Z,24.83
2018-02-23T20:47:48.109Z,22.90
2018-02-23T20:50:15.665Z,23.90
2018-02-23T20:52:43.222Z,22.37
2018-02-23T20:55:10.845Z,23.37
2018-02-23T20:57:38.380Z,22.73
2018-02-23T21:00:05.958Z,22.40
2018-02-23T21:02:33.536Z,23.63
2018-02-23T21:05:01.134Z,23.30
2018-02-23T21:07:28.694Z,25.03
2018-02-23T21:09:56.255Z,24.17
2018-02-23T21:12:23.825Z,23.03
2018-02-23T21:14:51.374Z,24.50
2018-02-23T21:17:18.944Z,23.23
2018-02-23T21:19:46.475Z,22.97
2018-02-23T21:22:14.046Z,23.53
2018-02-23T21:24:41.617Z,25.07
2018-02-23T21:27:09.166Z,24.80
2018-02-23T21:29:36.743Z,22.63
2018-02-23T21:32:04.290Z,23.53
2018-02-23T21:34:31.949Z,24.27
2018-02-23T21:36:59.520Z,24.57
2018-02-23T21:39:27.136Z,22.20
2018-02-23T21:41:55.568Z,24.70
2018-02-23T21:44:23.145Z,23.17
2018-02-23T21:46:50.728Z,23.27
2018-02-23T21:49:18.309Z,23.83
2018-02-23T21:51:45.879Z,22.37
2018-02-23T21:54:13.452Z,23.53
2018-02-23T21:56:41.062Z,24.20
2018-02-23T21:59:08.653Z,23.27
2018-02-23T22:01:36.213Z,23.97
2018-02-23T22:04:03.749Z,24.63
2018-02-23T22:06:32.149Z,23.43
2018-02-23T22:08:59.732Z,23.63
2018-02-23T22:11:27.310Z,24.00
2018-02-23T22:13:54.828Z,23.70
2018-02-23T22:16:23.165Z,24.20
2018-02-23T22:18:50.757Z,26.03
2018-02-23T22:21:19.085Z,24.43
2018-02-23T22:23:46.645Z,25.70
2018-02-23T22:26:14.205Z,24.47
2018-02-23T22:28:41.817Z,25.03
2018-02-23T22:31:10.168Z,25.13
2018-02-23T22:33:37.761Z,22.47
2018-02-23T22:36:05.374Z,24.90
2018-02-23T22:38:33.013Z,23.33
2018-02-23T22:41:00.564Z,22.60
2018-02-23T22:43:28.133Z,24.63
2018-02-23T22:45:55.657Z,24.03
2018-02-23T22:48:23.224Z,21.90
2018-02-23T22:50:51.526Z,24.07
2018-02-23T22:53:19.108Z,23.90
2018-02-23T22:55:46.634Z,22.77
2018-02-23T22:58:14.225Z,23.37
2018-02-23T23:00:41.748Z,23.47
2018-02-23T23:03:10.075Z,23.90
2018-02-23T23:05:37.607Z,22.90
2018-02-23T23:08:05.193Z,23.57
2018-02-23T23:10:32.732Z,24.20
2018-02-23T23:13:00.302Z,24.03
2018-02-23T23:15:27.821Z,24.13
2018-02-23T23:17:55.332Z,23.43
2018-02-23T23:20:22.917Z,21.23
2018-02-23T23:22:51.272Z,23.00
2018-02-23T23:25:18.800Z,23.10
2018-02-23T23:27:46.340Z,23.40
2018-02-23T23:30:13.904Z,22.27
2018-02-23T23:32:41.456Z,22.80
2018-02-23T23:35:09.045Z,22.33
2018-02-23T23:37:36.632Z,23.67
2018-02-23T23:40:04.167Z,23.07
2018-02-23T23:42:31.736Z,24.00
2018-02-23T23:44:59.307Z,24.07
2018-02-23T23:47:26.829Z,22.67
2018-02-23T23:49:54.427Z,21.60
2018-02-23T23:52:21.951Z,22.20
2018-02-23T23:54:49.528Z,21.20
2018-02-23T23:57:17.065Z,21.40
2018-02-23T23:59:44.652Z,21.70
